Time;durP1;ratioP1;P1;durP2;ratioP2;P2;SDS_P1;SDS_P2;PMS_P1;PMS_P2;Temp;Humidity;BMP_temperature;BMP_pressure;BME280_temperature;BME280_humidity;BME280_pressure;Samples;Min_cycle;Max_cycle;Signal;HPM_P1;HPM_P2
2022/06/13 00:00:51;;;;;;;15.93;4.90;;;15.60;61.40;;;;;;9180645;19;20011;-74
2022/06/13 00:03:57;;;;;;;13.77;4.90;;;15.60;61.40;;;;;;9181630;19;20017;-75
2022/06/13 00:07:02;;;;;;;24.20;6.85;;;15.50;61.50;;;;;;9182029;19;20017;-74
2022/06/13 00:10:08;;;;;;;21.00;6.00;;;15.50;61.50;;;;;;9183251;19;20007;-75
2022/06/13 00:13:16;;;;;;;20.67;5.97;;;15.40;61.70;;;;;;9184294;19;20346;-74
2022/06/13 00:16:21;;;;;;;17.65;6.03;;;15.40;61.80;;;;;;9177944;19;20018;-74
2022/06/13 00:19:26;;;;;;;13.90;5.07;;;15.40;61.80;;;;;;9182594;19;20018;-75
2022/06/13 00:22:31;;;;;;;25.92;5.55;;;15.40;61.80;;;;;;9182711;19;20693;-75
2022/06/13 00:25:36;;;;;;;18.65;5.63;;;15.30;61.90;;;;;;9182838;19;20010;-74
2022/06/13 00:28:44;;;;;;;16.92;5.20;;;15.30;62.10;;;;;;9183703;19;20025;-74
2022/06/13 00:31:49;;;;;;;16.38;5.28;;;15.30;62.20;;;;;;9181248;19;20019;-73
2022/06/13 00:34:55;;;;;;;21.98;5.15;;;15.20;62.10;;;;;;9182042;19;20085;-74
2022/06/13 00:38:03;;;;;;;15.02;5.15;;;15.20;62.30;;;;;;9182126;19;20006;-75
2022/06/13 00:41:12;;;;;;;15.45;5.45;;;15.20;62.40;;;;;;9180584;19;20011;-74
2022/06/13 00:44:29;;;;;;;13.55;4.53;;;15.10;62.50;;;;;;9180930;19;20049;-74
2022/06/13 00:47:34;;;;;;;16.95;5.35;;;15.10;62.70;;;;;;9179540;19;20090;-75
2022/06/13 00:50:47;;;;;;;15.80;5.57;;;15.10;62.70;;;;;;9183405;19;20017;-75
2022/06/13 00:53:55;;;;;;;18.50;5.45;;;15.10;62.90;;;;;;9182913;19;20021;-74
2022/06/13 00:57:05;;;;;;;19.92;4.78;;;15.00;62.90;;;;;;9180731;19;20476;-76
2022/06/13 01:00:21;;;;;;;14.88;5.72;;;15.00;63.10;;;;;;9181236;19;20022;-74
2022/06/13 01:03:30;;;;;;;23.35;5.63;;;15.00;63.50;;;;;;9187138;19;20018;-72
2022/06/13 01:06:43;;;;;;;16.42;4.05;;;15.00;63.40;;;;;;9190300;19;20022;-70
2022/06/13 01:13:11;;;;;;;14.95;3.75;;;15.00;63.80;;;;;;9190136;19;20113;-70
2022/06/13 01:16:32;;;;;;;13.88;3.15;;;15.00;64.10;;;;;;9190162;19;20026;-70
2022/06/13 01:20:10;;;;;;;8.52;2.72;;;15.00;64.60;;;;;;9188614;19;20078;-70
2022/06/13 01:23:51;;;;;;;8.77;3.10;;;15.00;64.70;;;;;;9189473;19;20021;-70
2022/06/13 01:27:29;;;;;;;12.82;3.25;;;15.00;65.40;;;;;;9188336;19;20010;-70
2022/06/13 01:30:59;;;;;;;7.35;2.72;;;15.00;64.90;;;;;;9191025;19;20017;-70
2022/06/13 01:34:13;;;;;;;15.27;2.80;;;15.00;65.10;;;;;;9189957;19;20017;-71
2022/06/13 01:37:33;;;;;;;8.10;3.03;;;15.00;64.90;;;;;;9191116;19;20021;-71
2022/06/13 01:40:51;;;;;;;11.50;3.42;;;15.00;65.10;;;;;;9187387;19;20017;-70
2022/06/13 01:44:09;;;;;;;13.98;3.50;;;15.00;65.30;;;;;;9186177;19;20029;-72
2022/06/13 01:47:25;;;;;;;7.85;2.70;;;15.00;65.20;;;;;;9190231;19;20018;-72
2022/06/13 01:50:36;;;;;;;9.77;3.17;;;15.00;65.50;;;;;;9188070;19;20011;-71
2022/06/13 01:53:49;;;;;;;10.10;2.90;;;15.00;65.40;;;;;;9189967;19;20007;-71
2022/06/13 01:57:08;;;;;;;11.40;2.85;;;15.00;65.60;;;;;;9188409;19;20512;-70
2022/06/13 02:00:17;;;;;;;9.45;3.00;;;15.00;65.90;;;;;;9186778;19;20070;-71
2022/06/13 02:03:31;;;;;;;12.50;3.33;;;15.00;65.80;;;;;;9189811;19;20015;-70
2022/06/13 02:06:39;;;;;;;10.43;3.83;;;14.90;66.10;;;;;;9187767;19;20018;-71
2022/06/13 02:09:49;;;;;;;17.60;3.90;;;14.90;66.00;;;;;;9188529;19;21076;-73
2022/06/13 02:12:58;;;;;;;10.70;3.70;;;15.00;66.20;;;;;;9188774;19;20023;-71
2022/06/13 02:16:09;;;;;;;9.60;4.00;;;14.90;66.30;;;;;;9186381;19;20017;-71
2022/06/13 02:19:23;;;;;;;9.75;3.67;;;14.90;66.50;;;;;;9182646;19;20036;-72
2022/06/13 02:22:39;;;;;;;9.75;4.20;;;14.90;67.00;;;;;;9188317;19;20014;-71
2022/06/13 02:25:50;;;;;;;14.07;4.85;;;15.00;66.70;;;;;;9187337;19;20034;-71
2022/06/13 02:28:59;;;;;;;11.93;4.15;;;14.90;66.70;;;;;;9187392;19;20344;-71
2022/06/13 02:32:10;;;;;;;12.35;5.03;;;14.90;66.80;;;;;;9186540;19;20364;-71
2022/06/13 02:35:27;;;;;;;12.15;4.05;;;14.90;67.00;;;;;;9188022;19;20021;-71
2022/06/13 02:38:38;;;;;;;14.68;5.45;;;14.90;67.20;;;;;;9188485;19;20017;-70
2022/06/13 02:41:48;;;;;;;11.95;4.60;;;14.90;67.20;;;;;;9184578;19;20015;-72
2022/06/13 02:44:59;;;;;;;12.68;4.90;;;14.90;67.20;;;;;;9184841;19;20007;-71
2022/06/13 02:48:14;;;;;;;15.82;4.65;;;14.90;67.30;;;;;;9185708;19;20018;-71
2022/06/13 02:51:30;;;;;;;13.20;5.30;;;14.90;67.50;;;;;;9187980;19;20014;-71
2022/06/13 02:54:41;;;;;;;17.65;5.30;;;14.90;67.70;;;;;;9185934;19;20034;-71
2022/06/13 02:58:04;;;;;;;14.40;5.18;;;14.90;67.60;;;;;;9186602;19;20018;-71
2022/06/13 03:01:15;;;;;;;16.23;4.13;;;14.90;67.90;;;;;;9183471;19;20014;-70
2022/06/13 03:04:33;;;;;;;13.07;4.68;;;14.90;67.80;;;;;;9185815;19;20696;-71
2022/06/13 03:07:50;;;;;;;13.13;5.38;;;14.90;68.10;;;;;;9185774;19;20105;-71
2022/06/13 03:11:05;;;;;;;13.90;4.75;;;14.90;68.00;;;;;;9184849;19;20014;-71
2022/06/13 03:14:23;;;;;;;11.23;4.93;;;14.90;68.10;;;;;;9184942;19;20051;-71
2022/06/13 03:17:36;;;;;;;9.30;4.50;;;14.90;68.10;;;;;;9180522;19;20338;-71
2022/06/13 03:20:47;;;;;;;8.75;4.32;;;14.90;68.10;;;;;;9183862;19;20014;-71
2022/06/13 03:24:00;;;;;;;11.48;4.95;;;14.90;68.20;;;;;;9184943;19;20029;-71
2022/06/13 03:27:11;;;;;;;11.32;4.90;;;14.90;68.30;;;;;;9183537;19;20027;-71
2022/06/13 03:30:20;;;;;;;10.55;4.93;;;14.90;68.30;;;;;;9183868;19;20025;-70
2022/06/13 03:33:44;;;;;;;10.02;4.47;;;14.90;68.30;;;;;;9185307;19;20018;-71
2022/06/13 03:36:53;;;;;;;11.43;5.05;;;14.90;68.50;;;;;;9182690;19;20026;-71
2022/06/13 03:40:05;;;;;;;11.77;5.13;;;14.90;68.50;;;;;;9183057;19;20022;-71
2022/06/13 03:43:16;;;;;;;15.75;5.68;;;14.90;68.70;;;;;;9185145;19;20019;-72
2022/06/13 03:46:40;;;;;;;12.57;5.32;;;14.90;68.70;;;;;;9185365;19;20479;-71
2022/06/13 03:49:50;;;;;;;18.07;5.30;;;14.90;68.90;;;;;;9183532;19;20011;-71
2022/06/13 03:53:01;;;;;;;12.88;5.05;;;14.80;68.80;;;;;;9183863;19;20015;-71
2022/06/13 03:56:18;;;;;;;16.27;5.35;;;14.80;68.90;;;;;;9184930;19;20010;-71
2022/06/13 03:59:28;;;;;;;13.18;5.60;;;14.90;69.20;;;;;;9183684;19;20428;-71
2022/06/13 04:02:35;;;;;;;13.15;5.38;;;14.80;69.10;;;;;;9180748;19;20017;-71
2022/06/13 04:05:44;;;;;;;12.18;5.60;;;14.90;69.20;;;;;;9184535;19;20711;-73
2022/06/13 04:08:49;;;;;;;12.63;5.05;;;14.90;69.30;;;;;;9180973;19;20099;-71
2022/06/13 04:12:20;;;;;;;10.77;5.32;;;14.80;69.20;;;;;;9185069;19;20557;-71
2022/06/13 04:15:41;;;;;;;12.80;5.60;;;14.90;69.70;;;;;;9182251;19;20007;-71
2022/06/13 04:19:00;;;;;;;13.32;5.72;;;14.90;69.60;;;;;;9179601;19;20363;-70
2022/06/13 04:22:12;;;;;;;15.48;5.22;;;14.90;69.60;;;;;;9181411;19;20011;-71
2022/06/13 04:25:26;;;;;;;12.02;5.20;;;14.90;69.60;;;;;;9182615;19;20010;-71
2022/06/13 04:28:40;;;;;;;15.10;6.00;;;14.90;69.70;;;;;;9183709;19;20018;-71
2022/06/13 04:31:46;;;;;;;15.38;5.47;;;14.80;69.70;;;;;;9180947;19;20022;-71
2022/06/13 04:34:53;;;;;;;14.05;5.38;;;14.90;69.60;;;;;;9178540;19;20030;-70
2022/06/13 04:38:00;;;;;;;12.55;5.90;;;14.90;69.80;;;;;;9180284;19;20025;-71
2022/06/13 04:41:07;;;;;;;17.00;6.75;;;14.90;69.90;;;;;;9179637;19;20488;-71
2022/06/13 04:44:18;;;;;;;14.75;6.40;;;14.90;70.00;;;;;;9182053;19;20011;-71
2022/06/13 04:47:23;;;;;;;17.83;7.00;;;14.90;70.20;;;;;;9180477;19;20014;-71
2022/06/13 04:50:35;;;;;;;12.27;6.35;;;15.00;70.10;;;;;;9181512;19;20017;-71
2022/06/13 04:53:49;;;;;;;17.02;6.78;;;15.00;70.30;;;;;;9182515;19;20450;-71
2022/06/13 04:56:59;;;;;;;20.25;7.25;;;15.00;70.40;;;;;;9181898;19;20014;-71
2022/06/13 05:00:10;;;;;;;23.70;6.93;;;15.00;70.50;;;;;;9180562;19;20488;-71
2022/06/13 05:03:22;;;;;;;16.70;7.10;;;15.00;70.60;;;;;;9178948;19;20018;-71
2022/06/13 05:06:33;;;;;;;20.42;7.40;;;15.00;70.70;;;;;;9180687;19;20333;-71
2022/06/13 05:09:47;;;;;;;17.60;7.60;;;15.10;70.70;;;;;;9181052;19;20476;-71
2022/06/13 05:12:52;;;;;;;17.90;7.40;;;15.10;70.70;;;;;;9182229;19;20082;-71
2022/06/13 05:16:07;;;;;;;23.33;7.18;;;15.10;70.70;;;;;;9181781;19;20014;-71
2022/06/13 05:19:29;;;;;;;19.98;7.20;;;15.10;71.00;;;;;;9176737;19;20110;-71
2022/06/13 05:22:58;;;;;;;30.60;9.35;;;15.20;71.30;;;;;;9178792;19;20014;-71
2022/06/13 05:26:04;;;;;;;29.25;8.02;;;15.20;71.30;;;;;;9180497;19;20014;-71
2022/06/13 05:29:11;;;;;;;22.35;8.18;;;15.30;71.10;;;;;;9179248;19;20378;-70
2022/06/13 05:32:21;;;;;;;30.58;8.45;;;15.30;71.30;;;;;;9178757;19;20014;-70
2022/06/13 05:35:30;;;;;;;28.02;10.18;;;15.40;71.60;;;;;;9174446;19;21304;-71
2022/06/13 05:38:38;;;;;;;27.92;9.23;;;15.40;71.60;;;;;;9175323;19;20598;-71
2022/06/13 05:41:43;;;;;;;20.48;8.88;;;15.50;71.80;;;;;;9177600;19;20518;-71
2022/06/13 05:44:48;;;;;;;24.75;8.73;;;15.70;71.90;;;;;;9177586;19;20482;-70
2022/06/13 05:47:56;;;;;;;25.60;8.48;;;15.70;71.80;;;;;;9179111;19;20018;-70
2022/06/13 05:51:01;;;;;;;21.38;7.28;;;15.80;71.90;;;;;;9186041;19;20010;-71
2022/06/13 05:54:06;;;;;;;30.17;8.57;;;16.00;71.80;;;;;;9186762;19;20022;-71
2022/06/13 05:57:13;;;;;;;28.85;7.80;;;16.10;71.90;;;;;;9189402;19;20017;-70
2022/06/13 06:00:22;;;;;;;21.63;7.68;;;16.20;72.00;;;;;;9189402;19;20014;-69
2022/06/13 06:03:30;;;;;;;30.15;8.43;;;16.30;72.10;;;;;;9183834;19;20026;-69
2022/06/13 06:06:37;;;;;;;25.02;7.45;;;16.40;72.20;;;;;;9187450;19;20357;-70
2022/06/13 06:09:42;;;;;;;22.85;7.07;;;16.60;72.20;;;;;;9184435;19;20014;-68
2022/06/13 06:12:47;;;;;;;20.08;6.85;;;16.70;72.10;;;;;;9175207;19;20018;-69
2022/06/13 06:15:53;;;;;;;16.73;5.60;;;16.90;72.10;;;;;;9174638;19;20854;-67
2022/06/13 06:19:01;;;;;;;22.58;6.38;;;17.10;72.10;;;;;;9175160;19;20015;-68
2022/06/13 06:22:06;;;;;;;22.52;6.35;;;17.30;72.00;;;;;;9178333;19;20021;-67
2022/06/13 06:25:12;;;;;;;14.40;3.95;;;17.50;71.90;;;;;;9179182;19;20482;-68
2022/06/13 06:28:19;;;;;;;14.30;4.80;;;17.70;71.60;;;;;;9175331;19;20022;-67
2022/06/13 06:31:24;;;;;;;20.25;4.65;;;17.90;71.30;;;;;;9175336;19;20376;-68
2022/06/13 06:34:32;;;;;;;15.88;4.13;;;18.00;71.00;;;;;;9174842;19;20034;-68
2022/06/13 06:37:40;;;;;;;10.95;3.80;;;18.20;70.90;;;;;;9180103;19;20486;-69
2022/06/13 06:40:46;;;;;;;9.30;3.53;;;18.30;70.50;;;;;;9182099;19;20021;-70
2022/06/13 06:43:51;;;;;;;13.85;3.28;;;18.50;70.30;;;;;;9177667;19;20065;-68
2022/06/13 06:46:56;;;;;;;14.07;2.92;;;18.60;70.10;;;;;;9177480;19;20532;-71
2022/06/13 06:50:04;;;;;;;14.63;3.05;;;18.80;69.80;;;;;;9178699;19;20015;-70
2022/06/13 06:53:10;;;;;;;6.30;2.10;;;19.00;69.50;;;;;;9176704;19;20665;-69
2022/06/13 07:02:59;;;;;;;11.63;2.50;;;19.30;68.50;;;;;;9182717;19;20018;-71
2022/06/13 07:06:07;;;;;;;13.85;2.20;;;19.40;68.20;;;;;;9186700;19;20011;-70
2022/06/13 07:09:13;;;;;;;11.48;2.30;;;19.50;67.90;;;;;;9183106;19;20011;-70
2022/06/13 07:12:18;;;;;;;8.25;2.50;;;19.50;67.70;;;;;;9186804;19;20037;-71
2022/06/13 07:15:23;;;;;;;9.23;2.17;;;19.50;67.40;;;;;;9186030;19;20014;-72
2022/06/13 07:18:28;;;;;;;6.72;1.83;;;19.60;67.30;;;;;;9181406;19;20010;-70
2022/06/13 07:21:36;;;;;;;8.20;2.00;;;19.60;67.10;;;;;;9183256;19;20010;-70
2022/06/13 07:24:41;;;;;;;9.98;2.10;;;19.70;67.00;;;;;;9185220;19;20015;-70
2022/06/13 07:27:46;;;;;;;8.05;1.63;;;19.60;66.80;;;;;;9185478;19;20026;-71
2022/06/13 07:30:51;;;;;;;5.68;1.52;;;19.70;66.50;;;;;;9185138;19;20025;-70
2022/06/13 07:33:56;;;;;;;5.80;1.75;;;19.70;66.30;;;;;;9184622;19;20011;-70
2022/06/13 07:37:07;;;;;;;12.13;1.67;;;19.70;66.20;;;;;;9186515;19;20014;-70
2022/06/13 07:40:14;;;;;;;9.98;1.98;;;19.70;66.10;;;;;;9183913;19;20465;-68
2022/06/13 07:43:27;;;;;;;8.77;2.05;;;19.70;66.10;;;;;;9182563;19;20400;-70
2022/06/13 07:46:33;;;;;;;5.60;1.48;;;19.70;65.90;;;;;;9184427;19;20383;-70
2022/06/13 07:49:38;;;;;;;9.43;1.65;;;19.70;65.90;;;;;;9183457;19;20361;-71
2022/06/13 07:52:46;;;;;;;7.97;1.95;;;19.70;65.60;;;;;;9182732;19;20010;-70
2022/06/13 07:55:51;;;;;;;11.35;2.15;;;19.70;65.40;;;;;;9183320;19;20026;-71
2022/06/13 07:58:57;;;;;;;5.90;1.63;;;19.80;65.40;;;;;;9183868;19;20015;-70
2022/06/13 08:02:03;;;;;;;5.35;1.20;;;19.80;65.30;;;;;;9182623;19;20018;-70
2022/06/13 08:05:09;;;;;;;7.50;1.40;;;19.80;65.10;;;;;;9179794;19;20101;-70
2022/06/13 08:08:18;;;;;;;4.70;1.48;;;19.80;64.90;;;;;;9177897;19;20015;-72
2022/06/13 08:11:30;;;;;;;11.85;1.65;;;19.80;64.80;;;;;;9176460;19;20867;-68
2022/06/13 08:14:36;;;;;;;7.63;1.58;;;19.90;64.70;;;;;;9178497;19;20026;-69
2022/06/13 08:17:42;;;;;;;6.43;1.75;;;19.90;64.80;;;;;;9177849;19;20021;-71
2022/06/13 08:20:47;;;;;;;5.45;1.17;;;20.00;64.70;;;;;;9180603;19;20033;-70
2022/06/13 08:23:55;;;;;;;9.20;2.25;;;20.10;64.60;;;;;;9177237;19;20015;-68
2022/06/13 08:27:00;;;;;;;6.25;1.58;;;20.20;64.40;;;;;;9179089;19;20512;-70
2022/06/13 08:30:06;;;;;;;4.80;1.40;;;20.40;64.30;;;;;;9179388;19;20022;-68
2022/06/13 08:33:12;;;;;;;9.88;2.15;;;20.50;64.20;;;;;;9180027;19;20014;-68
2022/06/13 08:36:17;;;;;;;7.57;1.88;;;20.60;63.90;;;;;;9182280;19;20018;-68
2022/06/13 08:39:26;;;;;;;6.28;1.20;;;20.80;63.60;;;;;;9181968;19;20018;-68
2022/06/13 08:42:36;;;;;;;11.07;1.48;;;20.90;63.30;;;;;;9181157;19;20464;-71
2022/06/13 08:45:47;;;;;;;7.82;1.48;;;21.00;63.20;;;;;;9180310;19;20025;-69
2022/06/13 08:48:57;;;;;;;5.40;1.00;;;21.10;63.00;;;;;;9178468;19;20018;-67
2022/06/13 08:52:14;;;;;;;4.13;0.90;;;21.20;62.70;;;;;;9178967;19;20022;-69
2022/06/13 08:55:31;;;;;;;14.05;1.65;;;21.30;62.40;;;;;;9177351;19;20021;-70
2022/06/13 08:58:43;;;;;;;5.40;1.60;;;21.40;62.20;;;;;;9175860;19;20010;-70
2022/06/13 09:01:50;;;;;;;7.03;1.20;;;21.40;62.00;;;;;;9176859;19;20033;-71
2022/06/13 09:05:01;;;;;;;6.93;1.30;;;21.50;61.90;;;;;;9169847;19;20022;-70
2022/06/13 09:08:18;;;;;;;4.90;1.05;;;21.60;61.80;;;;;;9170305;19;20014;-70
2022/06/13 09:11:34;;;;;;;5.18;1.08;;;21.70;61.70;;;;;;9176990;19;20006;-74
2022/06/13 09:14:45;;;;;;;4.22;1.02;;;21.80;61.40;;;;;;9175055;19;20062;-69
2022/06/13 09:17:57;;;;;;;8.95;1.35;;;21.90;61.10;;;;;;9172105;19;20021;-69
2022/06/13 09:24:32;;;;;;;6.88;1.85;;;22.20;60.40;;;;;;9181064;19;20022;-70
2022/06/13 09:27:48;;;;;;;10.23;1.40;;;22.20;60.00;;;;;;9187989;19;20334;-70
2022/06/13 09:30:59;;;;;;;6.28;1.23;;;22.30;59.80;;;;;;9185836;19;20010;-69
2022/06/13 09:34:11;;;;;;;19.48;2.30;;;22.20;59.80;;;;;;9186937;19;20356;-71
2022/06/13 09:37:21;;;;;;;6.80;1.20;;;22.20;59.60;;;;;;9184447;19;20017;-72
2022/06/13 09:40:42;;;;;;;7.47;1.23;;;22.20;59.60;;;;;;9186446;19;20030;-70
2022/06/13 09:44:05;;;;;;;6.05;1.10;;;22.10;59.30;;;;;;9183215;19;20015;-75
2022/06/13 09:47:24;;;;;;;9.35;1.42;;;22.00;59.30;;;;;;9185810;19;20018;-74
2022/06/13 09:50:37;;;;;;;11.98;1.40;;;22.00;59.40;;;;;;9188214;19;20019;-70
2022/06/13 09:53:52;;;;;;;5.78;1.30;;;21.90;59.40;;;;;;9184457;19;20355;-71
2022/06/13 09:57:05;;;;;;;5.60;1.27;;;21.90;59.30;;;;;;9186527;19;20015;-73
2022/06/13 10:00:20;;;;;;;6.55;0.98;;;21.90;59.20;;;;;;9187385;19;20014;-72
2022/06/13 10:03:41;;;;;;;6.55;0.93;;;21.90;59.10;;;;;;9187223;19;20007;-71
2022/06/13 10:06:51;;;;;;;6.30;0.90;;;22.00;59.00;;;;;;9188691;19;20019;-74
2022/06/13 10:10:04;;;;;;;7.82;1.35;;;22.10;59.20;;;;;;9185603;19;20022;-73
2022/06/13 10:13:19;;;;;;;2.85;0.98;;;22.20;58.70;;;;;;9190107;19;20022;-70
2022/06/13 10:16:38;;;;;;;4.65;1.30;;;22.30;58.30;;;;;;9182176;19;20399;-72
2022/06/13 10:19:53;;;;;;;3.63;1.15;;;22.30;57.80;;;;;;9183323;19;20491;-71
2022/06/13 10:23:04;;;;;;;2.60;0.90;;;22.30;57.80;;;;;;9184607;19;20037;-72
2022/06/13 10:26:22;;;;;;;5.03;1.05;;;22.40;57.80;;;;;;9184039;19;20045;-70
2022/06/13 10:29:48;;;;;;;6.82;0.98;;;22.40;57.50;;;;;;9184204;19;20345;-71
2022/06/13 10:33:21;;;;;;;8.02;1.27;;;22.40;57.20;;;;;;9183556;19;20038;-71
2022/06/13 10:36:34;;;;;;;3.42;0.75;;;22.50;57.00;;;;;;9175299;19;20022;-71
2022/06/13 10:39:40;;;;;;;5.85;1.02;;;22.50;57.00;;;;;;9180997;19;20018;-70
2022/06/13 10:42:45;;;;;;;2.22;0.63;;;22.50;57.10;;;;;;9178322;19;20017;-68
2022/06/13 10:45:50;;;;;;;2.88;0.80;;;22.50;56.80;;;;;;9177762;19;20022;-69
2022/06/13 10:49:04;;;;;;;5.97;0.95;;;22.60;56.70;;;;;;9180819;19;20440;-70
2022/06/13 10:52:15;;;;;;;3.83;0.83;;;22.70;56.40;;;;;;9181318;19;20019;-69
2022/06/13 10:55:24;;;;;;;2.30;0.90;;;22.70;56.30;;;;;;9182609;19;20024;-71
2022/06/13 10:58:35;;;;;;;7.95;1.13;;;22.80;56.20;;;;;;9182722;19;20007;-72
2022/06/13 11:01:58;;;;;;;7.55;1.45;;;22.90;55.90;;;;;;9183189;19;20026;-69
2022/06/13 11:05:13;;;;;;;3.67;0.90;;;23.00;55.40;;;;;;9178235;19;20011;-72
2022/06/13 11:08:18;;;;;;;;;;;23.10;55.30;;;;;;9178973;19;20023;-69
2022/06/13 11:11:36;;;;;;;3.40;0.77;;;23.10;55.90;;;;;;9183407;19;19979;-70
2022/06/13 11:22:37;;;;;;;3.47;1.00;;;23.10;55.30;;;;;;9179980;19;20010;-70
2022/06/13 11:25:00;;;;;;;2.65;0.88;;;23.10;54.80;;;;;;9184084;19;20015;-72
2022/06/13 11:28:10;;;;;;;1.80;0.50;;;23.20;54.80;;;;;;9187250;19;20029;-70
2022/06/13 11:31:20;;;;;;;2.42;0.82;;;23.20;54.30;;;;;;9185413;19;20010;-70
2022/06/13 11:34:34;;;;;;;4.35;0.90;;;23.20;54.10;;;;;;9183681;19;20340;-71
2022/06/13 11:37:41;;;;;;;4.43;1.00;;;23.20;53.90;;;;;;9184930;19;20018;-75
2022/06/13 11:41:00;;;;;;;6.43;1.10;;;23.20;53.90;;;;;;9185091;19;20038;-73
2022/06/13 11:44:08;;;;;;;5.05;0.70;;;23.30;53.60;;;;;;9186205;19;20056;-70
2022/06/13 11:47:13;;;;;;;4.13;1.00;;;23.30;53.60;;;;;;9187044;19;20022;-70
2022/06/13 11:50:25;;;;;;;2.95;0.73;;;23.30;53.50;;;;;;9183883;19;20018;-71
2022/06/13 11:53:39;;;;;;;7.55;1.45;;;23.40;53.10;;;;;;9183760;19;20018;-70
2022/06/13 11:56:44;;;;;;;8.20;1.15;;;23.40;53.10;;;;;;9183997;19;20333;-73
2022/06/13 11:59:53;;;;;;;4.40;0.95;;;23.40;53.20;;;;;;9183122;19;20498;-72
2022/06/13 12:03:08;;;;;;;3.72;0.90;;;23.50;53.20;;;;;;9182022;19;20476;-70
2022/06/13 12:06:16;;;;;;;3.03;0.90;;;23.50;53.00;;;;;;9183954;19;20006;-70
2022/06/13 12:09:30;;;;;;;4.88;1.10;;;23.60;52.80;;;;;;9182590;19;20036;-73
2022/06/13 12:12:46;;;;;;;8.10;1.45;;;23.70;52.60;;;;;;9183429;19;20018;-71
2022/06/13 12:15:58;;;;;;;4.85;0.98;;;23.70;52.30;;;;;;9179563;19;20019;-72
2022/06/13 12:19:12;;;;;;;8.60;1.15;;;23.80;52.90;;;;;;9175577;19;20106;-72
2022/06/13 12:22:20;;;;;;;;;;;23.90;52.00;;;;;;9185768;19;20010;-69
2022/06/13 12:25:35;;;;;;;9.70;1.42;;;23.90;52.70;;;;;;9181473;19;20345;-71
2022/06/13 12:28:48;;;;;;;5.32;1.15;;;23.90;52.10;;;;;;9185579;19;20003;-71
2022/06/13 12:32:00;;;;;;;6.57;1.15;;;23.90;51.90;;;;;;9183029;19;20019;-73
2022/06/13 12:35:18;;;;;;;8.52;1.27;;;23.90;51.90;;;;;;9184368;19;20012;-71
2022/06/13 12:38:41;;;;;;;4.70;1.05;;;23.90;51.50;;;;;;9182595;19;20018;-70
2022/06/13 12:41:59;;;;;;;4.03;0.77;;;23.90;51.40;;;;;;9184637;19;20033;-72
2022/06/13 12:45:34;;;;;;;6.90;0.80;;;24.00;51.60;;;;;;9181022;19;20042;-71
2022/06/13 12:48:53;;;;;;;6.32;1.27;;;24.00;51.20;;;;;;9184086;19;20019;-70
2022/06/13 12:52:03;;;;;;;6.78;1.55;;;24.00;51.20;;;;;;9182582;19;20018;-72
2022/06/13 12:55:39;;;;;;;9.88;1.30;;;24.10;51.20;;;;;;9177330;19;20021;-73
2022/06/13 12:59:02;;;;;;;9.07;1.42;;;24.10;50.90;;;;;;9171688;19;20034;-72
2022/06/13 13:02:23;;;;;;;13.00;1.55;;;24.20;50.80;;;;;;9172809;19;20391;-74
2022/06/13 13:05:45;;;;;;;4.93;1.27;;;24.20;50.70;;;;;;9172677;19;20011;-72
2022/06/13 13:09:04;;;;;;;7.20;1.23;;;24.20;50.60;;;;;;9168993;19;20557;-75
2022/06/13 13:12:25;;;;;;;11.95;2.47;;;24.20;50.60;;;;;;9173471;19;20010;-72
2022/06/13 13:15:39;;;;;;;6.43;1.30;;;24.20;50.50;;;;;;9172730;19;20357;-70
2022/06/13 13:19:16;;;;;;;5.07;1.23;;;24.30;50.40;;;;;;9169576;19;20030;-69
2022/06/13 13:22:26;;;;;;;3.38;1.00;;;24.20;50.10;;;;;;9174339;19;20645;-71
2022/06/13 13:25:38;;;;;;;3.70;1.13;;;24.20;50.30;;;;;;9176970;19;20026;-70
2022/06/13 13:28:52;;;;;;;7.22;1.30;;;24.10;50.00;;;;;;9180569;19;20011;-74
2022/06/13 13:32:08;;;;;;;7.13;1.02;;;24.10;49.90;;;;;;9179188;19;20026;-70
2022/06/13 13:35:27;;;;;;;9.00;1.08;;;24.00;49.90;;;;;;9180100;19;20026;-72
2022/06/13 13:38:36;;;;;;;4.38;0.90;;;24.00;49.90;;;;;;9176719;19;20014;-70
2022/06/13 13:41:47;;;;;;;2.05;0.80;;;24.00;49.80;;;;;;9179437;19;20360;-70
2022/06/13 13:44:58;;;;;;;5.30;0.98;;;23.90;49.40;;;;;;9177847;19;20027;-70
2022/06/13 13:48:14;;;;;;;7.80;1.38;;;23.90;49.60;;;;;;9178624;19;20098;-73
2022/06/13 13:51:23;;;;;;;6.55;1.30;;;23.90;49.40;;;;;;9179412;19;20090;-71
2022/06/13 13:54:32;;;;;;;4.78;0.98;;;23.90;49.50;;;;;;9178591;19;20030;-70
2022/06/13 13:57:43;;;;;;;5.82;1.15;;;23.90;49.40;;;;;;9179124;19;20010;-72
2022/06/13 14:00:55;;;;;;;11.93;1.20;;;23.90;49.20;;;;;;9177276;19;20017;-71
2022/06/13 14:04:27;;;;;;;7.80;1.25;;;23.80;49.20;;;;;;9177771;19;20082;-71
2022/06/13 14:07:57;;;;;;;5.70;1.40;;;23.80;49.10;;;;;;9177394;19;20033;-71
2022/06/13 14:11:03;;;;;;;3.65;0.98;;;23.80;49.20;;;;;;9184360;19;20472;-71
2022/06/13 14:14:10;;;;;;;6.20;1.10;;;23.80;49.40;;;;;;9188308;19;20007;-71
2022/06/13 14:17:17;;;;;;;7.43;1.17;;;23.80;49.20;;;;;;9184947;19;20007;-71
2022/06/13 14:20:29;;;;;;;4.45;1.23;;;23.80;49.10;;;;;;9188848;19;20015;-71
2022/06/13 14:23:38;;;;;;;8.50;1.30;;;23.80;48.90;;;;;;9189728;19;20007;-69
2022/06/13 14:27:09;;;;;;;8.02;1.27;;;23.80;48.90;;;;;;9185028;19;20017;-68
2022/06/13 14:37:28;;;;;;;6.18;1.40;;;23.80;48.70;;;;;;9182059;19;20022;-73
2022/06/13 14:40:37;;;;;;;6.68;1.33;;;23.80;48.90;;;;;;9187386;19;20018;-72
2022/06/13 14:44:04;;;;;;;4.65;1.40;;;23.80;48.80;;;;;;9186520;19;20052;-70
2022/06/13 14:47:17;;;;;;;3.00;1.08;;;23.70;48.70;;;;;;9183046;19;20015;-68
2022/06/13 14:50:48;;;;;;;9.45;0.95;;;23.70;48.80;;;;;;9186268;19;20861;-67
2022/06/13 14:53:57;;;;;;;5.35;1.45;;;23.70;48.80;;;;;;9187461;19;20019;-67
2022/06/13 14:57:02;;;;;;;6.97;1.30;;;23.70;49.00;;;;;;9186624;19;20010;-65
2022/06/13 15:00:18;;;;;;;4.70;1.33;;;23.70;49.00;;;;;;9186576;19;20048;-67
2022/06/13 15:03:23;;;;;;;8.50;2.08;;;23.70;48.70;;;;;;9186785;19;20018;-66
2022/06/13 15:06:30;;;;;;;6.78;1.75;;;23.60;48.70;;;;;;9186124;19;20373;-66
2022/06/13 15:09:45;;;;;;;6.18;1.30;;;23.60;48.60;;;;;;9182968;19;20015;-66
2022/06/13 15:12:51;;;;;;;6.90;1.35;;;23.50;48.40;;;;;;9182990;19;20014;-64
2022/06/13 15:15:59;;;;;;;4.25;1.10;;;23.50;48.60;;;;;;9179399;19;20480;-66
2022/06/13 15:19:07;;;;;;;2.85;0.82;;;23.40;48.60;;;;;;9179512;19;20014;-65
2022/06/13 15:22:17;;;;;;;8.00;1.27;;;23.30;48.60;;;;;;9180584;19;20010;-67
2022/06/13 15:25:43;;;;;;;6.03;0.95;;;23.30;48.60;;;;;;9179851;19;20033;-65
2022/06/13 15:29:15;;;;;;;7.88;1.52;;;23.20;48.30;;;;;;9181362;19;20443;-64
2022/06/13 15:32:26;;;;;;;3.10;0.98;;;23.30;48.40;;;;;;9178529;19;20494;-66
2022/06/13 15:35:46;;;;;;;5.97;1.27;;;23.20;49.20;;;;;;9180930;19;20022;-68
2022/06/13 15:38:53;;;;;;;2.63;0.80;;;23.20;48.30;;;;;;9179966;19;20022;-67
2022/06/13 15:42:04;;;;;;;4.63;1.23;;;23.20;48.50;;;;;;9178460;19;20019;-67
2022/06/13 15:45:15;;;;;;;4.43;1.15;;;23.10;48.30;;;;;;9181829;19;20021;-65
2022/06/13 15:48:20;;;;;;;11.30;1.30;;;23.10;48.30;;;;;;9176313;19;20263;-63
2022/06/13 15:51:27;;;;;;;5.10;1.20;;;23.10;48.50;;;;;;9178756;19;20490;-62
2022/06/13 15:54:37;;;;;;;7.18;1.10;;;23.10;48.40;;;;;;9178143;19;20015;-65
2022/06/13 15:57:51;;;;;;;3.17;1.05;;;23.10;48.40;;;;;;9179187;19;20061;-67
2022/06/13 16:00:58;;;;;;;6.63;1.17;;;23.00;48.10;;;;;;9182998;19;20022;-64
2022/06/13 16:04:14;;;;;;;5.18;1.10;;;22.90;48.20;;;;;;9184231;19;20364;-64
2022/06/13 16:07:26;;;;;;;14.63;1.67;;;22.90;48.30;;;;;;9179859;19;20021;-65
2022/06/13 16:10:36;;;;;;;4.28;0.90;;;22.80;48.20;;;;;;9183175;19;20029;-66
2022/06/13 16:13:54;;;;;;;4.22;1.17;;;22.90;48.40;;;;;;9168083;19;21214;-65
2022/06/13 16:17:02;;;;;;;7.45;1.20;;;22.80;48.30;;;;;;9165541;19;20015;-68
2022/06/13 16:20:20;;;;;;;7.97;1.27;;;22.80;48.30;;;;;;9179735;19;20022;-68
2022/06/13 16:23:26;;;;;;;2.78;0.90;;;22.80;48.20;;;;;;9183600;19;20015;-69
2022/06/13 16:26:36;;;;;;;5.70;1.52;;;22.70;48.30;;;;;;9181210;19;20019;-68
2022/06/13 16:29:45;;;;;;;3.65;1.10;;;22.70;48.40;;;;;;9182857;19;20015;-68
2022/06/13 16:32:53;;;;;;;3.30;1.13;;;22.60;48.40;;;;;;9179447;19;20486;-68
2022/06/13 16:36:00;;;;;;;8.00;1.42;;;22.50;48.40;;;;;;9183744;19;20018;-68
2022/06/13 16:39:08;;;;;;;4.85;1.00;;;22.50;48.40;;;;;;9183128;19;20010;-69
2022/06/13 16:42:19;;;;;;;3.90;0.98;;;22.40;48.40;;;;;;9181611;19;20015;-68
2022/06/13 16:45:27;;;;;;;7.63;1.40;;;22.40;48.40;;;;;;9178462;19;20014;-68
2022/06/13 16:48:34;;;;;;;11.20;1.83;;;22.30;48.50;;;;;;9180633;19;20361;-69
2022/06/13 16:51:42;;;;;;;4.20;1.05;;;22.30;48.50;;;;;;9180586;19;20570;-68
2022/06/13 16:54:52;;;;;;;4.55;1.15;;;22.30;48.50;;;;;;9179447;19;20023;-68
2022/06/13 16:57:59;;;;;;;5.88;1.30;;;22.20;48.50;;;;;;9166859;19;20018;-68
2022/06/13 17:01:12;;;;;;;7.93;1.63;;;22.10;48.60;;;;;;9178583;19;20018;-68